sensor_id;sensor_type;location;lat;lon;timestamp;P1;durP1;ratioP1;P2;durP2;ratioP2
1048;SDS011;513;51.444;7.196;2023-07-09T00:02:08;8.73;;;4.50;;
1048;SDS011;513;51.444;7.196;2023-07-09T00:04:36;8.30;;;5.07;;
1048;SDS011;513;51.444;7.196;2023-07-09T00:07:03;7.88;;;4.78;;
1048;SDS011;513;51.444;7.196;2023-07-09T00:09:31;6.40;;;4.68;;
1048;SDS011;513;51.444;7.196;2023-07-09T00:11:59;9.10;;;5.00;;
1048;SDS011;513;51.444;7.196;2023-07-09T00:14:26;7.57;;;4.93;;
1048;SDS011;513;51.444;7.196;2023-07-09T00:16:54;7.57;;;4.80;;
1048;SDS011;513;51.444;7.196;2023-07-09T00:19:21;6.95;;;4.55;;
1048;SDS011;513;51.444;7.196;2023-07-09T00:21:49;6.22;;;4.63;;
1048;SDS011;513;51.444;7.196;2023-07-09T00:24:18;7.68;;;4.72;;
1048;SDS011;513;51.444;7.196;2023-07-09T00:26:45;7.10;;;4.68;;
1048;SDS011;513;51.444;7.196;2023-07-09T00:29:13;8.32;;;4.38;;
1048;SDS011;513;51.444;7.196;2023-07-09T00:31:40;7.50;;;4.85;;
1048;SDS011;513;51.444;7.196;2023-07-09T00:34:09;5.97;;;4.37;;
1048;SDS011;513;51.444;7.196;2023-07-09T00:36:37;7.45;;;4.97;;
1048;SDS011;513;51.444;7.196;2023-07-09T00:39:04;6.05;;;4.47;;
1048;SDS011;513;51.444;7.196;2023-07-09T00:41:33;10.25;;;4.95;;
1048;SDS011;513;51.444;7.196;2023-07-09T00:44:13;7.80;;;4.70;;
1048;SDS011;513;51.444;7.196;2023-07-09T00:49:32;8.43;;;4.90;;
1048;SDS011;513;51.444;7.196;2023-07-09T00:52:00;8.73;;;4.78;;
1048;SDS011;513;51.444;7.196;2023-07-09T00:54:28;8.20;;;4.82;;
1048;SDS011;513;51.444;7.196;2023-07-09T00:56:57;7.95;;;4.68;;
1048;SDS011;513;51.444;7.196;2023-07-09T00:59:26;7.35;;;4.70;;
1048;SDS011;513;51.444;7.196;2023-07-09T01:01:55;6.72;;;4.70;;
1048;SDS011;513;51.444;7.196;2023-07-09T01:04:22;7.55;;;5.00;;
1048;SDS011;513;51.444;7.196;2023-07-09T01:06:52;9.18;;;4.80;;
1048;SDS011;513;51.444;7.196;2023-07-09T01:09:19;7.80;;;4.43;;
1048;SDS011;513;51.444;7.196;2023-07-09T01:11:47;8.18;;;4.90;;
1048;SDS011;513;51.444;7.196;2023-07-09T01:14:15;8.20;;;5.00;;
1048;SDS011;513;51.444;7.196;2023-07-09T01:16:44;7.75;;;4.93;;
1048;SDS011;513;51.444;7.196;2023-07-09T01:19:13;7.60;;;4.85;;
1048;SDS011;513;51.444;7.196;2023-07-09T01:21:42;9.40;;;4.97;;
1048;SDS011;513;51.444;7.196;2023-07-09T01:24:11;8.02;;;4.75;;
1048;SDS011;513;51.444;7.196;2023-07-09T01:26:39;7.50;;;5.03;;
1048;SDS011;513;51.444;7.196;2023-07-09T01:29:08;8.07;;;5.00;;
1048;SDS011;513;51.444;7.196;2023-07-09T01:31:38;6.68;;;4.70;;
1048;SDS011;513;51.444;7.196;2023-07-09T01:34:05;7.20;;;4.93;;
1048;SDS011;513;51.444;7.196;2023-07-09T01:36:33;10.10;;;5.10;;
1048;SDS011;513;51.444;7.196;2023-07-09T01:39:01;8.17;;;5.00;;
1048;SDS011;513;51.444;7.196;2023-07-09T01:41:28;6.77;;;4.80;;
1048;SDS011;513;51.444;7.196;2023-07-09T01:43:59;8.82;;;5.63;;
1048;SDS011;513;51.444;7.196;2023-07-09T01:46:26;8.40;;;4.82;;
1048;SDS011;513;51.444;7.196;2023-07-09T01:48:53;8.27;;;5.03;;
1048;SDS011;513;51.444;7.196;2023-07-09T01:51:20;7.60;;;5.10;;
1048;SDS011;513;51.444;7.196;2023-07-09T01:53:47;7.68;;;5.30;;
1048;SDS011;513;51.444;7.196;2023-07-09T01:56:16;7.32;;;5.00;;
1048;SDS011;513;51.444;7.196;2023-07-09T01:58:43;9.02;;;5.55;;
1048;SDS011;513;51.444;7.196;2023-07-09T02:01:10;9.20;;;5.13;;
1048;SDS011;513;51.444;7.196;2023-07-09T02:03:37;7.00;;;4.97;;
1048;SDS011;513;51.444;7.196;2023-07-09T02:06:04;8.93;;;5.30;;
1048;SDS011;513;51.444;7.196;2023-07-09T02:08:34;7.68;;;5.07;;
1048;SDS011;513;51.444;7.196;2023-07-09T02:11:01;7.07;;;5.13;;
1048;SDS011;513;51.444;7.196;2023-07-09T02:13:30;8.55;;;5.20;;
1048;SDS011;513;51.444;7.196;2023-07-09T02:15:57;10.38;;;5.43;;
1048;SDS011;513;51.444;7.196;2023-07-09T02:18:24;8.13;;;5.00;;
1048;SDS011;513;51.444;7.196;2023-07-09T02:20:51;6.65;;;5.32;;
1048;SDS011;513;51.444;7.196;2023-07-09T02:23:18;9.35;;;5.22;;
1048;SDS011;513;51.444;7.196;2023-07-09T02:25:45;7.18;;;4.95;;
1048;SDS011;513;51.444;7.196;2023-07-09T02:28:12;8.32;;;4.95;;
1048;SDS011;513;51.444;7.196;2023-07-09T02:30:40;7.15;;;4.90;;
1048;SDS011;513;51.444;7.196;2023-07-09T02:33:07;7.82;;;5.30;;
1048;SDS011;513;51.444;7.196;2023-07-09T02:35:34;9.48;;;5.18;;
1048;SDS011;513;51.444;7.196;2023-07-09T02:38:01;8.70;;;5.32;;
1048;SDS011;513;51.444;7.196;2023-07-09T02:40:29;9.70;;;5.45;;
1048;SDS011;513;51.444;7.196;2023-07-09T02:42:56;7.45;;;5.20;;
1048;SDS011;513;51.444;7.196;2023-07-09T02:45:23;8.18;;;5.15;;
1048;SDS011;513;51.444;7.196;2023-07-09T02:47:51;11.40;;;5.60;;
1048;SDS011;513;51.444;7.196;2023-07-09T02:50:18;7.65;;;5.45;;
1048;SDS011;513;51.444;7.196;2023-07-09T02:52:46;8.38;;;5.30;;
1048;SDS011;513;51.444;7.196;2023-07-09T02:55:13;10.02;;;5.50;;
1048;SDS011;513;51.444;7.196;2023-07-09T02:57:40;8.85;;;5.32;;
1048;SDS011;513;51.444;7.196;2023-07-09T03:00:07;8.77;;;5.72;;
1048;SDS011;513;51.444;7.196;2023-07-09T03:02:34;7.72;;;5.60;;
1048;SDS011;513;51.444;7.196;2023-07-09T03:05:03;9.27;;;5.57;;
1048;SDS011;513;51.444;7.196;2023-07-09T03:07:31;8.32;;;5.30;;
1048;SDS011;513;51.444;7.196;2023-07-09T03:09:58;8.13;;;5.90;;
1048;SDS011;513;51.444;7.196;2023-07-09T03:12:25;10.77;;;6.10;;
1048;SDS011;513;51.444;7.196;2023-07-09T03:14:52;7.30;;;5.40;;
1048;SDS011;513;51.444;7.196;2023-07-09T03:17:19;10.13;;;5.85;;
1048;SDS011;513;51.444;7.196;2023-07-09T03:19:46;8.43;;;5.60;;
1048;SDS011;513;51.444;7.196;2023-07-09T03:22:14;9.25;;;5.68;;
1048;SDS011;513;51.444;7.196;2023-07-09T03:24:41;10.80;;;5.80;;
1048;SDS011;513;51.444;7.196;2023-07-09T03:27:08;10.10;;;5.68;;
1048;SDS011;513;51.444;7.196;2023-07-09T03:29:35;7.65;;;5.40;;
1048;SDS011;513;51.444;7.196;2023-07-09T03:32:02;9.18;;;5.93;;
1048;SDS011;513;51.444;7.196;2023-07-09T03:34:29;9.88;;;5.68;;
1048;SDS011;513;51.444;7.196;2023-07-09T03:36:57;9.70;;;6.10;;
1048;SDS011;513;51.444;7.196;2023-07-09T03:39:25;9.63;;;6.15;;
1048;SDS011;513;51.444;7.196;2023-07-09T03:41:52;12.13;;;6.07;;
1048;SDS011;513;51.444;7.196;2023-07-09T03:44:19;9.47;;;5.83;;
1048;SDS011;513;51.444;7.196;2023-07-09T03:46:46;8.82;;;5.38;;
1048;SDS011;513;51.444;7.196;2023-07-09T03:49:13;7.97;;;5.85;;
1048;SDS011;513;51.444;7.196;2023-07-09T03:51:40;7.70;;;5.28;;
1048;SDS011;513;51.444;7.196;2023-07-09T03:54:07;9.80;;;5.43;;
1048;SDS011;513;51.444;7.196;2023-07-09T03:56:35;7.75;;;5.45;;
1048;SDS011;513;51.444;7.196;2023-07-09T03:59:03;8.18;;;5.75;;
1048;SDS011;513;51.444;7.196;2023-07-09T04:01:30;7.38;;;5.40;;
1048;SDS011;513;51.444;7.196;2023-07-09T04:03:56;7.80;;;5.72;;
1048;SDS011;513;51.444;7.196;2023-07-09T04:06:23;7.72;;;5.88;;
1048;SDS011;513;51.444;7.196;2023-07-09T04:08:50;7.20;;;5.50;;
1048;SDS011;513;51.444;7.196;2023-07-09T04:11:17;9.93;;;5.78;;
1048;SDS011;513;51.444;7.196;2023-07-09T04:13:46;8.52;;;6.07;;
1048;SDS011;513;51.444;7.196;2023-07-09T04:16:13;11.63;;;6.20;;
1048;SDS011;513;51.444;7.196;2023-07-09T04:18:40;9.10;;;5.80;;
1048;SDS011;513;51.444;7.196;2023-07-09T04:21:07;8.93;;;5.88;;
1048;SDS011;513;51.444;7.196;2023-07-09T04:23:34;9.95;;;5.97;;
1048;SDS011;513;51.444;7.196;2023-07-09T04:26:01;10.75;;;5.93;;
1048;SDS011;513;51.444;7.196;2023-07-09T04:28:29;9.15;;;6.05;;
1048;SDS011;513;51.444;7.196;2023-07-09T04:30:57;10.73;;;6.10;;
1048;SDS011;513;51.444;7.196;2023-07-09T04:33:24;9.93;;;5.93;;
1048;SDS011;513;51.444;7.196;2023-07-09T04:35:51;10.43;;;5.82;;
1048;SDS011;513;51.444;7.196;2023-07-09T04:38:18;7.55;;;5.82;;
1048;SDS011;513;51.444;7.196;2023-07-09T04:40:46;10.00;;;5.93;;
1048;SDS011;513;51.444;7.196;2023-07-09T04:43:13;7.90;;;5.95;;
1048;SDS011;513;51.444;7.196;2023-07-09T04:45:40;8.20;;;5.63;;
1048;SDS011;513;51.444;7.196;2023-07-09T04:48:08;8.30;;;5.80;;
1048;SDS011;513;51.444;7.196;2023-07-09T04:50:35;11.88;;;6.13;;
1048;SDS011;513;51.444;7.196;2023-07-09T04:53:02;9.43;;;6.37;;
1048;SDS011;513;51.444;7.196;2023-07-09T04:55:29;9.07;;;6.05;;
1048;SDS011;513;51.444;7.196;2023-07-09T04:57:57;9.90;;;5.78;;
1048;SDS011;513;51.444;7.196;2023-07-09T05:00:24;10.33;;;6.17;;
1048;SDS011;513;51.444;7.196;2023-07-09T05:02:51;8.48;;;5.80;;
1048;SDS011;513;51.444;7.196;2023-07-09T05:05:19;9.27;;;5.75;;
1048;SDS011;513;51.444;7.196;2023-07-09T05:07:46;10.30;;;6.03;;
1048;SDS011;513;51.444;7.196;2023-07-09T05:10:14;9.00;;;5.97;;
1048;SDS011;513;51.444;7.196;2023-07-09T05:12:47;9.40;;;6.18;;
1048;SDS011;513;51.444;7.196;2023-07-09T05:15:15;9.82;;;5.80;;
1048;SDS011;513;51.444;7.196;2023-07-09T05:17:42;8.63;;;6.13;;
1048;SDS011;513;51.444;7.196;2023-07-09T05:20:09;10.60;;;5.82;;
1048;SDS011;513;51.444;7.196;2023-07-09T05:22:37;11.30;;;6.00;;
1048;SDS011;513;51.444;7.196;2023-07-09T05:25:05;7.85;;;5.78;;
1048;SDS011;513;51.444;7.196;2023-07-09T05:27:32;9.87;;;6.30;;
1048;SDS011;513;51.444;7.196;2023-07-09T05:29:59;10.20;;;6.10;;
1048;SDS011;513;51.444;7.196;2023-07-09T05:32:26;9.98;;;5.90;;
1048;SDS011;513;51.444;7.196;2023-07-09T05:34:53;9.88;;;5.72;;
1048;SDS011;513;51.444;7.196;2023-07-09T05:37:20;8.30;;;5.90;;
1048;SDS011;513;51.444;7.196;2023-07-09T05:39:48;8.88;;;5.85;;
1048;SDS011;513;51.444;7.196;2023-07-09T05:42:15;10.77;;;5.45;;
1048;SDS011;513;51.444;7.196;2023-07-09T05:44:43;10.27;;;6.20;;
1048;SDS011;513;51.444;7.196;2023-07-09T05:47:10;8.82;;;5.95;;
1048;SDS011;513;51.444;7.196;2023-07-09T05:49:37;8.70;;;5.75;;
1048;SDS011;513;51.444;7.196;2023-07-09T05:52:05;10.10;;;6.45;;
1048;SDS011;513;51.444;7.196;2023-07-09T05:54:32;9.70;;;5.85;;
1048;SDS011;513;51.444;7.196;2023-07-09T05:57:01;10.88;;;6.03;;
1048;SDS011;513;51.444;7.196;2023-07-09T05:59:27;11.95;;;5.90;;
1048;SDS011;513;51.444;7.196;2023-07-09T06:01:54;13.35;;;6.32;;
1048;SDS011;513;51.444;7.196;2023-07-09T06:04:22;9.55;;;6.40;;
1048;SDS011;513;51.444;7.196;2023-07-09T06:06:50;9.52;;;5.57;;
1048;SDS011;513;51.444;7.196;2023-07-09T06:09:17;9.00;;;5.97;;
1048;SDS011;513;51.444;7.196;2023-07-09T06:11:44;10.00;;;6.05;;
1048;SDS011;513;51.444;7.196;2023-07-09T06:14:12;9.80;;;6.10;;
1048;SDS011;513;51.444;7.196;2023-07-09T06:16:41;6.35;;;5.50;;
1048;SDS011;513;51.444;7.196;2023-07-09T06:19:09;9.40;;;5.70;;
1048;SDS011;513;51.444;7.196;2023-07-09T06:21:36;9.38;;;5.90;;
1048;SDS011;513;51.444;7.196;2023-07-09T06:24:04;9.03;;;5.83;;
1048;SDS011;513;51.444;7.196;2023-07-09T06:26:31;7.90;;;5.53;;
1048;SDS011;513;51.444;7.196;2023-07-09T06:28:58;7.53;;;5.35;;
1048;SDS011;513;51.444;7.196;2023-07-09T06:31:26;9.63;;;5.53;;
1048;SDS011;513;51.444;7.196;2023-07-09T06:33:53;8.80;;;5.60;;
1048;SDS011;513;51.444;7.196;2023-07-09T06:36:20;9.45;;;5.60;;
1048;SDS011;513;51.444;7.196;2023-07-09T06:38:47;14.35;;;6.78;;
1048;SDS011;513;51.444;7.196;2023-07-09T06:41:14;11.10;;;7.78;;
1048;SDS011;513;51.444;7.196;2023-07-09T06:43:41;9.07;;;6.20;;
1048;SDS011;513;51.444;7.196;2023-07-09T06:46:10;8.63;;;5.60;;
1048;SDS011;513;51.444;7.196;2023-07-09T06:48:39;7.68;;;5.53;;
1048;SDS011;513;51.444;7.196;2023-07-09T06:51:06;8.68;;;5.35;;
1048;SDS011;513;51.444;7.196;2023-07-09T06:53:33;8.15;;;5.50;;
1048;SDS011;513;51.444;7.196;2023-07-09T06:56:00;9.15;;;6.07;;
1048;SDS011;513;51.444;7.196;2023-07-09T06:58:28;6.72;;;5.47;;
1048;SDS011;513;51.444;7.196;2023-07-09T07:00:56;9.07;;;5.72;;
1048;SDS011;513;51.444;7.196;2023-07-09T07:03:23;8.13;;;5.72;;
1048;SDS011;513;51.444;7.196;2023-07-09T07:05:52;8.27;;;5.67;;
1048;SDS011;513;51.444;7.196;2023-07-09T07:08:20;10.80;;;5.80;;
1048;SDS011;513;51.444;7.196;2023-07-09T07:10:48;9.43;;;5.50;;
1048;SDS011;513;51.444;7.196;2023-07-09T07:13:15;9.18;;;5.80;;
1048;SDS011;513;51.444;7.196;2023-07-09T07:15:44;8.75;;;5.80;;
1048;SDS011;513;51.444;7.196;2023-07-09T07:18:11;9.23;;;6.45;;
1048;SDS011;513;51.444;7.196;2023-07-09T07:20:38;9.02;;;6.05;;
1048;SDS011;513;51.444;7.196;2023-07-09T07:23:06;9.63;;;5.80;;
1048;SDS011;513;51.444;7.196;2023-07-09T07:25:33;8.80;;;5.80;;
1048;SDS011;513;51.444;7.196;2023-07-09T07:28:00;11.43;;;5.93;;
1048;SDS011;513;51.444;7.196;2023-07-09T07:30:27;10.50;;;6.20;;
1048;SDS011;513;51.444;7.196;2023-07-09T07:32:55;9.93;;;5.90;;
1048;SDS011;513;51.444;7.196;2023-07-09T07:35:22;10.30;;;6.20;;
1048;SDS011;513;51.444;7.196;2023-07-09T07:37:49;8.93;;;6.23;;
1048;SDS011;513;51.444;7.196;2023-07-09T07:40:17;9.27;;;6.10;;
1048;SDS011;513;51.444;7.196;2023-07-09T07:42:44;9.07;;;5.72;;
1048;SDS011;513;51.444;7.196;2023-07-09T07:45:12;11.68;;;6.47;;
1048;SDS011;513;51.444;7.196;2023-07-09T07:47:39;10.20;;;5.90;;
1048;SDS011;513;51.444;7.196;2023-07-09T07:50:06;12.05;;;5.93;;
1048;SDS011;513;51.444;7.196;2023-07-09T08:31:48;11.88;;;6.50;;
1048;SDS011;513;51.444;7.196;2023-07-09T08:36:41;9.18;;;6.60;;
1048;SDS011;513;51.444;7.196;2023-07-09T08:39:09;10.05;;;5.68;;
1048;SDS011;513;51.444;7.196;2023-07-09T08:41:38;12.40;;;5.28;;
1048;SDS011;513;51.444;7.196;2023-07-09T08:46:54;7.72;;;5.35;;
1048;SDS011;513;51.444;7.196;2023-07-09T08:49:28;7.63;;;6.05;;
1048;SDS011;513;51.444;7.196;2023-07-09T08:51:56;10.73;;;5.90;;
1048;SDS011;513;51.444;7.196;2023-07-09T08:54:26;9.82;;;5.28;;
1048;SDS011;513;51.444;7.196;2023-07-09T08:56:54;11.75;;;5.78;;
1048;SDS011;513;51.444;7.196;2023-07-09T08:59:22;9.13;;;5.03;;
1048;SDS011;513;51.444;7.196;2023-07-09T09:01:51;8.90;;;5.60;;
1048;SDS011;513;51.444;7.196;2023-07-09T09:04:22;6.90;;;5.43;;
1048;SDS011;513;51.444;7.196;2023-07-09T09:06:51;10.68;;;5.82;;
1048;SDS011;513;51.444;7.196;2023-07-09T09:09:25;6.18;;;4.75;;
1048;SDS011;513;51.444;7.196;2023-07-09T09:11:56;11.25;;;5.60;;
1048;SDS011;513;51.444;7.196;2023-07-09T09:14:27;11.18;;;5.40;;
1048;SDS011;513;51.444;7.196;2023-07-09T09:16:54;12.00;;;5.70;;
1048;SDS011;513;51.444;7.196;2023-07-09T09:19:25;8.00;;;4.95;;
1048;SDS011;513;51.444;7.196;2023-07-09T09:21:55;8.32;;;5.10;;
1048;SDS011;513;51.444;7.196;2023-07-09T09:24:26;8.25;;;6.15;;
1048;SDS011;513;51.444;7.196;2023-07-09T09:26:53;6.65;;;5.18;;
1048;SDS011;513;51.444;7.196;2023-07-09T09:29:23;9.43;;;5.05;;
1048;SDS011;513;51.444;7.196;2023-07-09T09:31:52;9.07;;;5.60;;
1048;SDS011;513;51.444;7.196;2023-07-09T09:34:21;9.23;;;5.30;;
1048;SDS011;513;51.444;7.196;2023-07-09T09:36:49;7.78;;;5.13;;
1048;SDS011;513;51.444;7.196;2023-07-09T09:39:17;7.47;;;4.82;;
1048;SDS011;513;51.444;7.196;2023-07-09T09:41:44;8.05;;;5.13;;
1048;SDS011;513;51.444;7.196;2023-07-09T09:44:17;9.93;;;5.75;;
1048;SDS011;513;51.444;7.196;2023-07-09T09:46:44;8.25;;;5.03;;
1048;SDS011;513;51.444;7.196;2023-07-09T09:49:12;7.07;;;4.97;;
1048;SDS011;513;51.444;7.196;2023-07-09T09:51:40;7.82;;;5.20;;
1048;SDS011;513;51.444;7.196;2023-07-09T09:54:11;13.30;;;5.32;;
1048;SDS011;513;51.444;7.196;2023-07-09T09:56:41;8.13;;;4.88;;
1048;SDS011;513;51.444;7.196;2023-07-09T09:59:13;9.55;;;4.63;;
1048;SDS011;513;51.444;7.196;2023-07-09T10:01:43;8.70;;;4.82;;
1048;SDS011;513;51.444;7.196;2023-07-09T10:04:10;9.23;;;4.88;;
1048;SDS011;513;51.444;7.196;2023-07-09T10:06:42;7.90;;;5.05;;
1048;SDS011;513;51.444;7.196;2023-07-09T10:09:15;8.60;;;4.70;;
1048;SDS011;513;51.444;7.196;2023-07-09T10:11:45;6.45;;;5.00;;
1048;SDS011;513;51.444;7.196;2023-07-09T10:14:18;7.53;;;5.40;;
1048;SDS011;513;51.444;7.196;2023-07-09T10:16:47;10.55;;;4.88;;
1048;SDS011;513;51.444;7.196;2023-07-09T10:19:17;6.88;;;4.07;;
1048;SDS011;513;51.444;7.196;2023-07-09T10:21:51;8.43;;;4.50;;
1048;SDS011;513;51.444;7.196;2023-07-09T10:24:28;6.45;;;4.15;;
1048;SDS011;513;51.444;7.196;2023-07-09T10:41:41;4.97;;;3.83;;
1048;SDS011;513;51.444;7.196;2023-07-09T10:44:11;7.40;;;3.80;;
1048;SDS011;513;51.444;7.196;2023-07-09T10:46:40;7.47;;;4.00;;
1048;SDS011;513;51.444;7.196;2023-07-09T10:49:09;5.75;;;3.70;;
1048;SDS011;513;51.444;7.196;2023-07-09T10:51:38;7.28;;;4.13;;
1048;SDS011;513;51.444;7.196;2023-07-09T10:54:07;6.47;;;3.80;;
1048;SDS011;513;51.444;7.196;2023-07-09T10:56:37;5.43;;;3.50;;
1048;SDS011;513;51.444;7.196;2023-07-09T10:59:19;7.83;;;4.10;;
1048;SDS011;513;51.444;7.196;2023-07-09T11:01:48;8.40;;;3.93;;
1048;SDS011;513;51.444;7.196;2023-07-09T11:04:18;6.93;;;3.92;;
1048;SDS011;513;51.444;7.196;2023-07-09T11:06:48;6.20;;;3.60;;
1048;SDS011;513;51.444;7.196;2023-07-09T11:09:19;6.63;;;4.03;;
1048;SDS011;513;51.444;7.196;2023-07-09T11:11:49;5.90;;;3.78;;
1048;SDS011;513;51.444;7.196;2023-07-09T11:14:23;6.60;;;4.07;;
1048;SDS011;513;51.444;7.196;2023-07-09T11:16:52;7.43;;;4.60;;
1048;SDS011;513;51.444;7.196;2023-07-09T11:19:20;6.10;;;3.80;;
1048;SDS011;513;51.444;7.196;2023-07-09T11:21:58;6.35;;;3.70;;
1048;SDS011;513;51.444;7.196;2023-07-09T11:24:33;8.57;;;4.05;;
1048;SDS011;513;51.444;7.196;2023-07-09T11:27:01;5.57;;;3.80;;
1048;SDS011;513;51.444;7.196;2023-07-09T11:29:30;5.95;;;3.97;;
1048;SDS011;513;51.444;7.196;2023-07-09T11:32:06;5.15;;;3.88;;
1048;SDS011;513;51.444;7.196;2023-07-09T11:34:34;7.10;;;4.05;;
1048;SDS011;513;51.444;7.196;2023-07-09T11:37:11;6.55;;;3.92;;
1048;SDS011;513;51.444;7.196;2023-07-09T11:39:42;7.20;;;3.97;;
1048;SDS011;513;51.444;7.196;2023-07-09T11:42:23;5.97;;;3.80;;
1048;SDS011;513;51.444;7.196;2023-07-09T11:44:52;6.47;;;3.70;;
1048;SDS011;513;51.444;7.196;2023-07-09T11:47:21;6.00;;;4.03;;
1048;SDS011;513;51.444;7.196;2023-07-09T11:49:51;5.63;;;3.80;;
1048;SDS011;513;51.444;7.196;2023-07-09T11:52:21;6.05;;;4.10;;
1048;SDS011;513;51.444;7.196;2023-07-09T11:54:49;7.47;;;4.10;;
1048;SDS011;513;51.444;7.196;2023-07-09T11:57:16;8.60;;;4.10;;
1048;SDS011;513;51.444;7.196;2023-07-09T11:59:44;6.10;;;3.90;;
1048;SDS011;513;51.444;7.196;2023-07-09T12:02:15;7.82;;;4.10;;
1048;SDS011;513;51.444;7.196;2023-07-09T12:04:43;6.23;;;3.97;;
1048;SDS011;513;51.444;7.196;2023-07-09T12:07:12;7.15;;;4.38;;
1048;SDS011;513;51.444;7.196;2023-07-09T12:09:43;7.40;;;4.00;;
1048;SDS011;513;51.444;7.196;2023-07-09T12:12:18;6.78;;;4.20;;
1048;SDS011;513;51.444;7.196;2023-07-09T12:14:45;6.10;;;4.00;;
1048;SDS011;513;51.444;7.196;2023-07-09T12:17:12;6.47;;;4.10;;
1048;SDS011;513;51.444;7.196;2023-07-09T12:19:41;5.53;;;3.92;;
1048;SDS011;513;51.444;7.196;2023-07-09T12:22:18;6.57;;;4.05;;
1048;SDS011;513;51.444;7.196;2023-07-09T12:24:46;6.03;;;4.00;;
1048;SDS011;513;51.444;7.196;2023-07-09T12:27:18;7.63;;;4.30;;
1048;SDS011;513;51.444;7.196;2023-07-09T12:29:45;5.45;;;3.88;;
1048;SDS011;513;51.444;7.196;2023-07-09T12:32:14;7.10;;;4.00;;
1048;SDS011;513;51.444;7.196;2023-07-09T12:34:42;6.28;;;3.70;;
1048;SDS011;513;51.444;7.196;2023-07-09T12:37:14;6.93;;;4.20;;
1048;SDS011;513;51.444;7.196;2023-07-09T12:39:41;6.05;;;3.70;;
1048;SDS011;513;51.444;7.196;2023-07-09T12:42:10;6.75;;;3.63;;
1048;SDS011;513;51.444;7.196;2023-07-09T12:44:40;6.05;;;4.00;;
1048;SDS011;513;51.444;7.196;2023-07-09T12:47:08;6.03;;;4.18;;
1048;SDS011;513;51.444;7.196;2023-07-09T12:49:39;4.90;;;3.60;;
1048;SDS011;513;51.444;7.196;2023-07-09T12:52:11;6.95;;;3.72;;
1048;SDS011;513;51.444;7.196;2023-07-09T12:54:38;5.45;;;3.70;;
1048;SDS011;513;51.444;7.196;2023-07-09T12:57:09;8.10;;;4.10;;
1048;SDS011;513;51.444;7.196;2023-07-09T12:59:40;5.25;;;3.60;;
1048;SDS011;513;51.444;7.196;2023-07-09T13:02:12;7.25;;;4.25;;
1048;SDS011;513;51.444;7.196;2023-07-09T13:04:40;8.57;;;4.20;;
1048;SDS011;513;51.444;7.196;2023-07-09T13:07:23;6.80;;;3.83;;
1048;SDS011;513;51.444;7.196;2023-07-09T13:09:52;4.90;;;3.90;;
1048;SDS011;513;51.444;7.196;2023-07-09T13:12:20;5.88;;;3.85;;
1048;SDS011;513;51.444;7.196;2023-07-09T13:14:52;7.20;;;4.10;;
1048;SDS011;513;51.444;7.196;2023-07-09T13:17:20;7.13;;;4.10;;
1048;SDS011;513;51.444;7.196;2023-07-09T13:19:47;8.13;;;4.07;;
1048;SDS011;513;51.444;7.196;2023-07-09T13:22:15;7.07;;;4.38;;
1048;SDS011;513;51.444;7.196;2023-07-09T13:24:44;6.63;;;3.70;;
1048;SDS011;513;51.444;7.196;2023-07-09T13:27:11;6.82;;;4.32;;
1048;SDS011;513;51.444;7.196;2023-07-09T13:29:46;5.63;;;4.35;;
1048;SDS011;513;51.444;7.196;2023-07-09T13:32:14;6.95;;;4.25;;
1048;SDS011;513;51.444;7.196;2023-07-09T13:34:42;6.93;;;4.30;;
1048;SDS011;513;51.444;7.196;2023-07-09T13:44:31;7.60;;;4.13;;
1048;SDS011;513;51.444;7.196;2023-07-09T13:46:58;8.77;;;4.78;;
1048;SDS011;513;51.444;7.196;2023-07-09T13:49:26;7.00;;;3.75;;
1048;SDS011;513;51.444;7.196;2023-07-09T13:51:54;5.88;;;4.03;;
1048;SDS011;513;51.444;7.196;2023-07-09T13:54:23;8.95;;;4.38;;
1048;SDS011;513;51.444;7.196;2023-07-09T13:56:50;6.15;;;4.00;;
1048;SDS011;513;51.444;7.196;2023-07-09T13:59:19;6.47;;;3.90;;
1048;SDS011;513;51.444;7.196;2023-07-09T14:01:47;7.68;;;4.07;;
1048;SDS011;513;51.444;7.196;2023-07-09T14:04:15;6.45;;;4.10;;
1048;SDS011;513;51.444;7.196;2023-07-09T14:06:43;5.10;;;3.65;;
1048;SDS011;513;51.444;7.196;2023-07-09T14:09:11;9.43;;;4.40;;
1048;SDS011;513;51.444;7.196;2023-07-09T14:11:39;6.90;;;4.32;;
1048;SDS011;513;51.444;7.196;2023-07-09T14:14:11;8.00;;;4.68;;
1048;SDS011;513;51.444;7.196;2023-07-09T14:16:42;5.68;;;4.20;;
1048;SDS011;513;51.444;7.196;2023-07-09T14:19:13;6.43;;;4.38;;
1048;SDS011;513;51.444;7.196;2023-07-09T14:21:40;7.28;;;4.28;;
1048;SDS011;513;51.444;7.196;2023-07-09T14:24:14;7.38;;;4.25;;
1048;SDS011;513;51.444;7.196;2023-07-09T14:26:43;8.45;;;5.10;;
1048;SDS011;513;51.444;7.196;2023-07-09T16:29:17;13.73;;;9.15;;
1048;SDS011;513;51.444;7.196;2023-07-09T16:31:44;16.65;;;11.82;;
1048;SDS011;513;51.444;7.196;2023-07-09T16:34:11;17.33;;;12.80;;
1048;SDS011;513;51.444;7.196;2023-07-09T16:36:38;14.65;;;11.40;;
1048;SDS011;513;51.444;7.196;2023-07-09T16:39:21;16.60;;;11.02;;
1048;SDS011;513;51.444;7.196;2023-07-09T16:41:49;15.68;;;12.15;;
1048;SDS011;513;51.444;7.196;2023-07-09T16:44:21;12.45;;;11.10;;
1048;SDS011;513;51.444;7.196;2023-07-09T16:46:48;13.38;;;11.02;;
1048;SDS011;513;51.444;7.196;2023-07-09T16:49:32;14.27;;;10.10;;
1048;SDS011;513;51.444;7.196;2023-07-09T16:52:00;14.70;;;9.73;;
1048;SDS011;513;51.444;7.196;2023-07-09T16:54:27;13.45;;;10.05;;
1048;SDS011;513;51.444;7.196;2023-07-09T16:56:54;10.38;;;8.30;;
1048;SDS011;513;51.444;7.196;2023-07-09T16:59:23;10.73;;;8.00;;
1048;SDS011;513;51.444;7.196;2023-07-09T17:01:50;12.38;;;9.80;;
1048;SDS011;513;51.444;7.196;2023-07-09T17:04:19;11.43;;;9.43;;
1048;SDS011;513;51.444;7.196;2023-07-09T17:06:46;11.15;;;10.02;;
1048;SDS011;513;51.444;7.196;2023-07-09T17:09:16;10.73;;;8.68;;
1048;SDS011;513;51.444;7.196;2023-07-09T17:11:43;11.88;;;9.07;;
1048;SDS011;513;51.444;7.196;2023-07-09T17:14:13;10.82;;;8.63;;
1048;SDS011;513;51.444;7.196;2023-07-09T17:16:42;11.70;;;9.20;;
1048;SDS011;513;51.444;7.196;2023-07-09T17:19:10;12.13;;;9.48;;
1048;SDS011;513;51.444;7.196;2023-07-09T17:21:37;11.77;;;10.48;;
1048;SDS011;513;51.444;7.196;2023-07-09T17:24:07;11.77;;;9.97;;
1048;SDS011;513;51.444;7.196;2023-07-09T17:26:42;13.38;;;10.00;;
1048;SDS011;513;51.444;7.196;2023-07-09T17:29:09;15.80;;;10.40;;
1048;SDS011;513;51.444;7.196;2023-07-09T17:31:36;14.23;;;10.80;;
1048;SDS011;513;51.444;7.196;2023-07-09T17:34:05;14.05;;;10.10;;
1048;SDS011;513;51.444;7.196;2023-07-09T17:36:32;12.48;;;9.30;;
1048;SDS011;513;51.444;7.196;2023-07-09T17:39:00;12.15;;;9.23;;
1048;SDS011;513;51.444;7.196;2023-07-09T17:41:27;12.73;;;8.88;;
1048;SDS011;513;51.444;7.196;2023-07-09T17:43:54;10.82;;;8.02;;
1048;SDS011;513;51.444;7.196;2023-07-09T17:46:21;10.70;;;8.15;;
1048;SDS011;513;51.444;7.196;2023-07-09T17:48:48;11.13;;;8.23;;
1048;SDS011;513;51.444;7.196;2023-07-09T17:51:17;13.77;;;8.85;;
1048;SDS011;513;51.444;7.196;2023-07-09T17:53:44;11.32;;;7.95;;
1048;SDS011;513;51.444;7.196;2023-07-09T17:56:16;10.52;;;8.32;;
1048;SDS011;513;51.444;7.196;2023-07-09T17:58:44;11.20;;;8.18;;
1048;SDS011;513;51.444;7.196;2023-07-09T18:01:13;11.73;;;9.27;;
1048;SDS011;513;51.444;7.196;2023-07-09T18:03:40;12.25;;;9.25;;
1048;SDS011;513;51.444;7.196;2023-07-09T18:06:07;13.20;;;8.82;;
1048;SDS011;513;51.444;7.196;2023-07-09T18:08:40;9.02;;;8.10;;
1048;SDS011;513;51.444;7.196;2023-07-09T18:11:10;10.98;;;9.25;;
1048;SDS011;513;51.444;7.196;2023-07-09T18:13:46;12.90;;;8.80;;
1048;SDS011;513;51.444;7.196;2023-07-09T18:16:13;13.57;;;9.53;;
1048;SDS011;513;51.444;7.196;2023-07-09T18:18:40;13.73;;;9.73;;
1048;SDS011;513;51.444;7.196;2023-07-09T18:21:08;13.23;;;9.60;;
1048;SDS011;513;51.444;7.196;2023-07-09T18:23:39;11.95;;;9.90;;
1048;SDS011;513;51.444;7.196;2023-07-09T18:26:07;11.50;;;9.73;;
1048;SDS011;513;51.444;7.196;2023-07-09T18:28:34;11.98;;;9.90;;
1048;SDS011;513;51.444;7.196;2023-07-09T18:31:01;13.32;;;10.00;;
1048;SDS011;513;51.444;7.196;2023-07-09T18:33:30;11.03;;;9.30;;
1048;SDS011;513;51.444;7.196;2023-07-09T18:35:57;10.68;;;9.05;;
1048;SDS011;513;51.444;7.196;2023-07-09T18:38:24;11.77;;;9.37;;
1048;SDS011;513;51.444;7.196;2023-07-09T18:40:53;11.57;;;9.55;;
1048;SDS011;513;51.444;7.196;2023-07-09T18:43:20;10.60;;;8.35;;